createdAt,value
2019-05-10T00:00:53.857Z,22.22
2019-05-10T00:03:43.633Z,32.98
2019-05-10T00:09:05.580Z,73.75
2019-05-10T00:11:49.394Z,57.03
2019-05-10T00:14:28.991Z,33.40
2019-05-10T00:17:02.531Z,25.02
2019-05-10T00:19:34.360Z,15.50
2019-05-10T00:22:05.978Z,16.90
2019-05-10T00:24:37.520Z,17.82
2019-05-10T00:27:09.535Z,15.72
2019-05-10T00:29:41.482Z,14.43
2019-05-10T00:32:13.414Z,17.23
2019-05-10T00:34:45.080Z,19.07
2019-05-10T00:37:16.873Z,19.15
2019-05-10T00:39:48.809Z,17.45
2019-05-10T00:42:20.953Z,17.05
2019-05-10T00:44:52.868Z,14.83
2019-05-10T00:47:25.948Z,19.95
2019-05-10T00:49:57.702Z,21.02
2019-05-10T00:52:29.753Z,20.68
2019-05-10T00:55:16.666Z,28.25
2019-05-10T00:57:34.980Z,16.07
2019-05-10T01:00:08.574Z,19.10
2019-05-10T01:02:40.441Z,14.55
2019-05-10T01:05:14.147Z,19.07
2019-05-10T01:07:45.792Z,19.02
2019-05-10T01:10:17.984Z,15.98
2019-05-10T01:12:49.650Z,13.03
2019-05-10T01:15:21.823Z,20.95
2019-05-10T01:17:53.543Z,18.25
2019-05-10T01:20:26.129Z,19.70
2019-05-10T01:22:57.774Z,16.23
2019-05-10T01:25:35.373Z,14.03
2019-05-10T01:28:02.890Z,14.00
2019-05-10T01:30:34.504Z,18.40
2019-05-10T01:33:06.357Z,16.05
2019-05-10T01:35:38.170Z,12.58
2019-05-10T01:38:09.767Z,15.50
2019-05-10T01:40:41.447Z,14.20
2019-05-10T01:43:13.084Z,12.15
2019-05-10T01:45:45.054Z,12.25
2019-05-10T01:48:16.593Z,12.28
2019-05-10T01:50:48.195Z,17.60
2019-05-10T01:53:19.782Z,15.18
2019-05-10T01:55:52.962Z,14.65
2019-05-10T01:58:25.040Z,14.68
2019-05-10T02:00:57.004Z,14.30
2019-05-10T02:03:28.694Z,14.30
2019-05-10T02:06:00.308Z,17.77
2019-05-10T02:08:32.593Z,17.05
2019-05-10T02:11:04.750Z,15.58
2019-05-10T02:13:36.325Z,14.87
2019-05-10T02:16:08.467Z,15.30
2019-05-10T02:18:40.530Z,18.23
2019-05-10T02:21:12.698Z,21.07
2019-05-10T02:23:44.398Z,28.20
2019-05-10T02:26:16.210Z,23.83
2019-05-10T02:28:49.627Z,28.07
2019-05-10T02:31:22.173Z,32.30
2019-05-10T02:33:53.942Z,22.10
2019-05-10T02:36:25.587Z,16.62
2019-05-10T02:38:57.289Z,17.35
2019-05-10T02:41:29.568Z,17.20
2019-05-10T02:44:01.618Z,14.95
2019-05-10T02:46:33.582Z,15.10
2019-05-10T02:49:07.646Z,23.27
2019-05-10T02:51:39.316Z,14.63
2019-05-10T02:54:11.203Z,15.75
2019-05-10T02:56:43.859Z,18.17
2019-05-10T02:59:16.419Z,17.80
2019-05-10T03:01:48.112Z,17.45
2019-05-10T03:04:23.261Z,15.85
2019-05-10T03:06:57.975Z,16.07
2019-05-10T03:09:34.020Z,14.30
2019-05-10T03:12:26.027Z,15.10
2019-05-10T03:14:58.935Z,16.85
2019-05-10T03:17:32.447Z,14.75
2019-05-10T03:20:04.279Z,17.48
2019-05-10T03:22:39.209Z,16.42
2019-05-10T03:25:11.062Z,21.50
2019-05-10T03:27:42.795Z,17.37
2019-05-10T03:30:15.013Z,20.05
2019-05-10T03:32:46.550Z,17.23
2019-05-10T03:35:18.552Z,19.70
2019-05-10T03:37:50.917Z,18.15
2019-05-10T03:40:22.536Z,21.17
2019-05-10T03:42:54.224Z,32.03
2019-05-10T03:45:26.284Z,29.90
2019-05-10T03:47:58.282Z,33.70
2019-05-10T03:50:30.315Z,22.80
2019-05-10T03:53:02.394Z,18.23
2019-05-10T03:55:34.515Z,18.42
2019-05-10T03:58:06.415Z,23.22
2019-05-10T04:00:38.358Z,20.23
2019-05-10T04:03:10.366Z,20.30
2019-05-10T04:05:42.177Z,17.73
2019-05-10T04:08:13.744Z,17.42
2019-05-10T04:10:45.798Z,20.08
2019-05-10T04:13:17.781Z,19.15
2019-05-10T04:15:49.823Z,20.57
2019-05-10T04:18:21.555Z,19.62
2019-05-10T04:20:53.129Z,20.25
2019-05-10T04:23:25.208Z,18.40
2019-05-10T04:25:59.520Z,18.48
2019-05-10T04:28:31.155Z,20.32
2019-05-10T04:31:03.110Z,24.20
2019-05-10T04:33:35.247Z,24.20
2019-05-10T04:36:12.045Z,17.15
2019-05-10T04:38:40.181Z,19.10
2019-05-10T04:41:11.798Z,20.25
2019-05-10T04:43:43.865Z,17.67
2019-05-10T04:46:15.704Z,19.52
2019-05-10T04:48:47.969Z,15.13
2019-05-10T04:51:19.623Z,15.35
2019-05-10T04:53:51.527Z,15.53
2019-05-10T04:56:23.155Z,14.20
2019-05-10T04:58:55.001Z,16.32
2019-05-10T05:01:26.976Z,16.00
2019-05-10T05:03:58.946Z,34.60
2019-05-10T05:06:30.886Z,15.70
2019-05-10T05:09:02.786Z,17.30
2019-05-10T05:11:34.612Z,18.62
2019-05-10T05:14:09.450Z,14.18
2019-05-10T05:16:42.531Z,15.85
2019-05-10T05:19:14.419Z,14.90
2019-05-10T05:21:46.378Z,14.70
2019-05-10T05:24:23.013Z,13.95
2019-05-10T05:26:51.914Z,13.45
2019-05-10T05:29:24.158Z,17.55
2019-05-10T05:32:01.276Z,25.12
2019-05-10T05:34:29.251Z,36.58
2019-05-10T05:37:00.996Z,60.67
2019-05-10T05:39:33.096Z,17.65
2019-05-10T05:42:04.949Z,17.77
2019-05-10T05:44:36.797Z,37.53
2019-05-10T05:47:08.735Z,42.45
2019-05-10T05:49:40.901Z,34.70
2019-05-10T05:52:12.793Z,34.78
2019-05-10T05:54:44.413Z,21.70
2019-05-10T05:57:16.451Z,21.02
2019-05-10T05:59:49.172Z,21.23
2019-05-10T06:02:21.041Z,16.40
2019-05-10T06:04:53.590Z,12.05
2019-05-10T06:07:25.304Z,16.77
2019-05-10T06:09:57.163Z,12.53
2019-05-10T06:12:28.559Z,11.38
2019-05-10T06:15:00.112Z,12.68
2019-05-10T06:17:31.896Z,12.80
2019-05-10T06:20:06.102Z,14.38
2019-05-10T06:22:38.087Z,15.65
2019-05-10T06:25:11.266Z,13.75
2019-05-10T06:27:43.213Z,13.83
2019-05-10T06:30:16.930Z,14.00
2019-05-10T06:32:53.297Z,14.30
2019-05-10T06:35:21.542Z,12.68
2019-05-10T06:37:53.097Z,11.83
2019-05-10T06:40:35.836Z,11.45
2019-05-10T06:42:59.631Z,10.58
2019-05-10T06:45:31.462Z,11.53
2019-05-10T06:48:03.340Z,8.45
2019-05-10T06:50:34.961Z,10.38
2019-05-10T06:53:10.514Z,10.10
2019-05-10T06:55:40.003Z,9.85
2019-05-10T06:58:11.857Z,8.55
2019-05-10T07:00:45.566Z,11.57
2019-05-10T07:03:16.711Z,8.30
2019-05-10T07:05:48.155Z,9.93
2019-05-10T07:08:20.645Z,6.75
2019-05-10T07:10:52.245Z,8.65
2019-05-10T07:13:23.767Z,6.60
2019-05-10T07:15:55.496Z,7.05
2019-05-10T07:18:27.454Z,8.98
2019-05-10T07:21:00.898Z,8.28
2019-05-10T07:23:32.505Z,7.87
2019-05-10T07:26:04.199Z,7.08
2019-05-10T07:28:35.748Z,7.05
2019-05-10T07:31:07.473Z,6.70
2019-05-10T07:33:40.230Z,7.95
2019-05-10T07:36:15.185Z,6.53
2019-05-10T07:38:45.694Z,7.55
2019-05-10T07:41:19.731Z,5.92
2019-05-10T07:43:50.916Z,8.60
2019-05-10T07:46:22.559Z,11.15
2019-05-10T07:48:54.118Z,7.10
2019-05-10T07:51:28.830Z,7.37
2019-05-10T07:54:04.673Z,10.00
2019-05-10T07:56:33.304Z,17.45
2019-05-10T07:59:05.423Z,10.08
2019-05-10T08:01:37.477Z,7.28
2019-05-10T08:04:12.628Z,8.85
2019-05-10T08:06:47.436Z,12.90
2019-05-10T08:09:16.257Z,9.23
2019-05-10T08:11:48.598Z,12.47
2019-05-10T08:14:20.555Z,10.72
2019-05-10T08:16:58.556Z,9.68
2019-05-10T08:19:25.617Z,12.10
2019-05-10T08:22:01.754Z,9.08
2019-05-10T08:24:35.140Z,6.22
2019-05-10T08:27:11.332Z,5.40
2019-05-10T08:29:36.857Z,4.47
2019-05-10T08:32:08.801Z,5.30
2019-05-10T08:34:51.733Z,8.18
2019-05-10T08:37:19.455Z,7.00
2019-05-10T08:39:50.298Z,5.42
2019-05-10T08:42:37.812Z,9.80
2019-05-10T08:45:04.132Z,5.75
2019-05-10T08:47:28.285Z,15.80
2019-05-10T08:50:17.930Z,13.35
2019-05-10T08:52:34.353Z,16.40
2019-05-10T08:55:07.985Z,7.60
2019-05-10T08:57:44.288Z,6.90
2019-05-10T09:00:13.386Z,8.05
2019-05-10T09:02:44.902Z,6.97
2019-05-10T09:05:22.649Z,6.22
2019-05-10T09:07:52.081Z,7.40
2019-05-10T09:10:23.939Z,7.53
2019-05-10T09:12:58.139Z,4.58
2019-05-10T09:15:28.996Z,6.70
2019-05-10T09:18:04.155Z,12.53
2019-05-10T09:20:34.513Z,5.95
2019-05-10T09:23:08.619Z,7.50
2019-05-10T09:25:39.387Z,6.03
2019-05-10T09:28:16.534Z,6.10
2019-05-10T09:30:56.573Z,7.25
2019-05-10T09:33:18.111Z,10.53
2019-05-10T09:35:54.697Z,7.30
2019-05-10T09:38:23.378Z,7.17
2019-05-10T09:40:56.257Z,9.20
2019-05-10T09:43:28.590Z,11.78
2019-05-10T09:46:02.527Z,8.28
2019-05-10T09:48:33.417Z,8.40
2019-05-10T09:51:05.249Z,9.38
2019-05-10T09:53:38.353Z,8.58
2019-05-10T09:56:10.110Z,11.88
2019-05-10T09:58:41.934Z,8.78
2019-05-10T10:01:19.085Z,9.33
2019-05-10T10:03:47.793Z,12.82
2019-05-10T10:06:20.070Z,9.58
2019-05-10T10:08:53.255Z,11.73
2019-05-10T10:11:27.640Z,11.90
2019-05-10T10:14:01.887Z,8.40
2019-05-10T10:16:32.133Z,10.38
2019-05-10T10:19:04.092Z,12.13
2019-05-10T10:21:38.984Z,16.67
2019-05-10T10:24:15.803Z,10.88
2019-05-10T10:26:42.530Z,9.28
2019-05-10T10:29:14.080Z,11.78
2019-05-10T10:31:54.656Z,5.50
2019-05-10T10:34:19.357Z,6.08
2019-05-10T10:36:51.011Z,11.45
2019-05-10T10:39:23.168Z,20.50
2019-05-10T10:41:57.156Z,21.68
2019-05-10T10:44:28.919Z,16.32
2019-05-10T10:47:00.682Z,10.45
2019-05-10T10:49:51.170Z,7.60
2019-05-10T10:52:23.031Z,5.80
2019-05-10T10:54:54.824Z,10.63
2019-05-10T10:57:39.246Z,8.95
2019-05-10T11:00:38.862Z,10.38
2019-05-10T11:03:09.817Z,5.03
2019-05-10T11:05:41.372Z,6.85
2019-05-10T11:08:14.298Z,4.12
2019-05-10T11:10:46.209Z,12.43
2019-05-10T11:13:23.716Z,5.92
2019-05-10T11:15:51.868Z,5.97
2019-05-10T11:18:23.437Z,5.35
2019-05-10T11:20:55.063Z,8.98
2019-05-10T11:23:34.101Z,5.03
2019-05-10T11:26:01.321Z,6.58
2019-05-10T11:28:38.620Z,5.45
2019-05-10T11:31:06.146Z,6.62
2019-05-10T11:33:37.747Z,3.72
2019-05-10T11:36:11.420Z,6.85
2019-05-10T11:38:47.037Z,3.72
2019-05-10T11:41:22.136Z,4.10
2019-05-10T11:43:49.692Z,5.35
2019-05-10T11:46:21.362Z,5.05
2019-05-10T11:48:53.225Z,4.85
2019-05-10T11:51:25.173Z,3.02
2019-05-10T11:53:59.648Z,3.47
2019-05-10T11:56:32.368Z,3.00
2019-05-10T11:59:05.430Z,4.55
2019-05-10T12:01:41.835Z,3.58
2019-05-10T12:04:24.035Z,6.37
2019-05-10T12:06:50.201Z,4.12
2019-05-10T12:09:24.522Z,9.80
2019-05-10T12:11:57.051Z,11.55
2019-05-10T12:14:28.849Z,6.37
2019-05-10T12:17:05.619Z,4.55
2019-05-10T12:19:44.478Z,4.78
2019-05-10T12:22:07.139Z,3.60
2019-05-10T12:24:57.109Z,6.20
2019-05-10T12:27:24.506Z,4.60
2019-05-10T12:29:46.579Z,8.38
2019-05-10T12:32:21.236Z,8.40
2019-05-10T12:34:56.518Z,5.78
2019-05-10T12:37:25.344Z,7.85
2019-05-10T12:40:06.182Z,11.48
2019-05-10T12:42:31.789Z,10.03
2019-05-10T12:45:04.421Z,8.43
2019-05-10T12:47:36.320Z,15.70
2019-05-10T12:50:08.914Z,5.87
2019-05-10T12:52:43.286Z,7.17
2019-05-10T12:55:13.761Z,8.55
2019-05-10T12:57:45.789Z,7.92
2019-05-10T13:00:17.734Z,7.47
2019-05-10T13:02:52.827Z,7.20
2019-05-10T13:05:30.643Z,9.00
2019-05-10T13:07:56.697Z,7.42
2019-05-10T13:10:28.734Z,6.83
2019-05-10T13:13:00.353Z,7.65
2019-05-10T13:15:33.499Z,6.00
2019-05-10T13:18:05.176Z,6.55
2019-05-10T13:20:38.661Z,4.20
2019-05-10T13:23:15.987Z,5.92
2019-05-10T13:25:44.528Z,7.12
2019-05-10T13:28:16.433Z,6.25
2019-05-10T13:30:47.935Z,4.37
2019-05-10T13:33:28.457Z,4.00
2019-05-10T13:35:56.530Z,7.25
2019-05-10T13:38:26.830Z,3.45
2019-05-10T13:40:58.975Z,4.50
2019-05-10T13:43:30.857Z,4.03
2019-05-10T13:46:02.490Z,4.15
2019-05-10T13:48:34.338Z,5.37
2019-05-10T13:51:06.195Z,2.67
2019-05-10T13:53:37.771Z,4.17
2019-05-10T13:56:09.612Z,5.42
2019-05-10T13:58:41.777Z,6.05
2019-05-10T14:01:14.864Z,2.75
2019-05-10T14:03:53.965Z,3.62
2019-05-10T14:06:20.638Z,3.95
2019-05-10T14:08:52.217Z,5.67
2019-05-10T14:11:25.632Z,3.52
2019-05-10T14:13:57.259Z,3.62
2019-05-10T14:16:28.756Z,3.30
2019-05-10T14:19:00.237Z,5.42
2019-05-10T14:21:31.767Z,4.45
2019-05-10T14:24:03.098Z,3.33
2019-05-10T14:26:34.535Z,4.45
2019-05-10T14:29:05.959Z,2.67
2019-05-10T14:31:37.304Z,4.15
2019-05-10T14:34:16.084Z,2.95
2019-05-10T14:36:43.508Z,3.90
2019-05-10T14:39:15.004Z,3.30
2019-05-10T14:41:50.817Z,3.42
2019-05-10T14:44:20.165Z,2.58
2019-05-10T14:46:51.838Z,2.58
2019-05-10T14:49:23.681Z,4.55
2019-05-10T14:51:59.708Z,2.30
2019-05-10T14:54:42.530Z,3.30
2019-05-10T14:57:01.948Z,2.22
2019-05-10T14:59:34.071Z,2.55
2019-05-10T15:02:05.953Z,1.82
2019-05-10T15:04:46.918Z,1.82
2019-05-10T15:07:14.466Z,9.90
2019-05-10T15:09:44.627Z,3.00
2019-05-10T15:12:22.275Z,2.87
2019-05-10T15:14:49.865Z,2.85
2019-05-10T15:17:21.281Z,2.22
2019-05-10T15:19:57.607Z,5.87
2019-05-10T15:22:26.370Z,4.87
2019-05-10T15:24:58.013Z,3.05
2019-05-10T15:27:29.495Z,1.82
2019-05-10T15:30:05.368Z,1.45
2019-05-10T15:32:35.127Z,1.12
2019-05-10T15:35:08.662Z,2.98
2019-05-10T15:37:45.763Z,1.62
2019-05-10T15:40:14.825Z,1.40
2019-05-10T15:42:46.423Z,1.95
2019-05-10T15:45:19.459Z,4.22
2019-05-10T15:47:52.327Z,2.08
2019-05-10T15:50:24.515Z,2.35
2019-05-10T15:52:56.475Z,1.30
2019-05-10T15:55:28.992Z,1.32
2019-05-10T15:58:00.697Z,1.98
2019-05-10T16:00:39.202Z,1.10
2019-05-10T16:03:06.157Z,1.22
2019-05-10T16:05:43.396Z,1.35
2019-05-10T16:08:13.663Z,2.25
2019-05-10T16:10:44.592Z,2.15
2019-05-10T16:13:23.245Z,0.95
2019-05-10T16:15:51.747Z,2.87
2019-05-10T16:18:23.218Z,1.52
2019-05-10T16:20:54.962Z,1.27
2019-05-10T16:23:26.471Z,3.33
2019-05-10T16:25:58.216Z,1.32
2019-05-10T16:28:30.170Z,0.95
2019-05-10T16:31:01.964Z,5.00
2019-05-10T16:33:33.821Z,2.12
2019-05-10T16:36:08.313Z,2.70
2019-05-10T16:38:39.248Z,1.40
2019-05-10T16:41:10.933Z,4.60
2019-05-10T16:43:43.691Z,8.43
2019-05-10T16:46:15.575Z,2.33
2019-05-10T16:48:47.094Z,7.78
2019-05-10T16:51:18.888Z,7.80
2019-05-10T16:53:50.569Z,4.50
2019-05-10T16:56:22.494Z,8.93
2019-05-10T16:58:55.122Z,7.55
2019-05-10T17:01:27.776Z,10.25
2019-05-10T17:04:01.520Z,13.03
2019-05-10T17:06:35.550Z,16.37
2019-05-10T17:09:09.479Z,11.93
2019-05-10T17:11:41.487Z,6.80
2019-05-10T17:14:17.778Z,6.65
2019-05-10T17:16:49.551Z,5.65
2019-05-10T17:19:20.783Z,11.53
2019-05-10T17:21:52.420Z,9.43
2019-05-10T17:24:25.417Z,4.05
2019-05-10T17:26:57.184Z,6.35
2019-05-10T17:29:28.979Z,6.70
2019-05-10T17:32:00.936Z,6.78
2019-05-10T17:34:32.410Z,6.90
2019-05-10T17:37:04.736Z,3.92
2019-05-10T17:39:36.520Z,7.85
2019-05-10T17:42:08.356Z,5.70
2019-05-10T17:44:43.514Z,4.45
2019-05-10T17:47:13.603Z,8.20
2019-05-10T17:49:45.478Z,6.35
2019-05-10T17:52:17.502Z,7.53
2019-05-10T17:54:50.386Z,14.98
2019-05-10T17:57:24.299Z,20.72
2019-05-10T17:59:55.832Z,36.10
2019-05-10T18:02:30.366Z,22.40
2019-05-10T18:05:06.754Z,10.70
2019-05-10T18:07:35.351Z,9.65
2019-05-10T18:10:07.656Z,10.05
2019-05-10T18:12:40.620Z,23.98
2019-05-10T18:15:12.727Z,8.98
2019-05-10T18:17:44.308Z,14.45
2019-05-10T18:20:16.172Z,9.95
2019-05-10T18:22:48.494Z,12.37
2019-05-10T18:25:22.398Z,5.30
2019-05-10T18:27:53.756Z,7.72
2019-05-10T18:30:25.696Z,3.75
2019-05-10T18:32:57.600Z,6.95
2019-05-10T18:35:29.039Z,4.03
2019-05-10T18:38:00.985Z,4.62
2019-05-10T18:40:35.305Z,4.50
2019-05-10T18:43:07.212Z,17.80
2019-05-10T18:45:40.523Z,6.30
2019-05-10T18:48:12.088Z,5.90
2019-05-10T18:50:45.229Z,6.35
2019-05-10T18:53:16.926Z,4.17
2019-05-10T18:55:48.580Z,8.13
2019-05-10T18:58:23.321Z,5.55
2019-05-10T19:00:56.115Z,5.30
2019-05-10T19:03:33.431Z,3.87
2019-05-10T19:06:04.176Z,4.37
2019-05-10T19:08:35.231Z,4.25
2019-05-10T19:11:07.206Z,4.78
2019-05-10T19:13:46.759Z,6.37
2019-05-10T19:16:12.651Z,4.97
2019-05-10T19:18:44.424Z,5.95
2019-05-10T19:21:16.267Z,2.98
2019-05-10T19:23:52.319Z,4.10
2019-05-10T19:26:23.845Z,4.55
2019-05-10T19:28:59.042Z,18.80
2019-05-10T19:31:37.255Z,46.90
2019-05-10T19:34:02.142Z,3.77
2019-05-10T19:36:33.914Z,5.50
2019-05-10T19:39:07.268Z,3.95
2019-05-10T19:41:38.650Z,3.17
2019-05-10T19:44:10.273Z,3.27
2019-05-10T19:46:42.948Z,3.05
2019-05-10T19:49:15.600Z,2.95
2019-05-10T19:51:50.280Z,2.72
2019-05-10T19:54:21.397Z,3.58
2019-05-10T19:56:55.492Z,4.25
2019-05-10T19:59:27.288Z,4.78
2019-05-10T20:01:58.830Z,3.70
2019-05-10T20:04:30.579Z,3.17
2019-05-10T20:07:02.240Z,2.80
2019-05-10T20:09:34.090Z,3.62
2019-05-10T20:12:05.560Z,6.03
2019-05-10T20:14:37.239Z,5.25
2019-05-10T20:17:09.091Z,2.70
2019-05-10T20:19:40.812Z,2.65
2019-05-10T20:22:12.738Z,2.62
2019-05-10T20:24:44.495Z,4.20
2019-05-10T20:27:16.177Z,3.52
2019-05-10T20:29:48.456Z,2.42
2019-05-10T20:32:20.319Z,2.02
2019-05-10T20:34:51.878Z,2.70
2019-05-10T20:37:23.732Z,2.12
2019-05-10T20:39:55.589Z,2.67
2019-05-10T20:42:27.323Z,2.40
2019-05-10T20:45:07.634Z,3.70
2019-05-10T20:47:32.805Z,3.10
2019-05-10T20:50:05.179Z,2.10
2019-05-10T20:52:37.061Z,2.17
2019-05-10T20:55:08.851Z,2.12
2019-05-10T20:57:41.271Z,2.45
2019-05-10T21:00:13.237Z,2.42
2019-05-10T21:02:44.899Z,2.60
2019-05-10T21:05:16.905Z,2.70
2019-05-10T21:07:48.623Z,2.60
2019-05-10T21:10:20.361Z,2.55
2019-05-10T21:12:52.232Z,3.52
2019-05-10T21:15:23.718Z,4.33
2019-05-10T21:17:55.354Z,3.55
2019-05-10T21:20:27.112Z,2.30
2019-05-10T21:22:58.745Z,3.83
2019-05-10T21:25:30.472Z,4.03
2019-05-10T21:28:01.852Z,3.50
2019-05-10T21:30:33.518Z,3.87
2019-05-10T21:33:05.529Z,3.45
2019-05-10T21:35:37.116Z,2.90
2019-05-10T21:38:08.783Z,3.45
2019-05-10T21:40:40.449Z,2.72
2019-05-10T21:43:12.098Z,3.42
2019-05-10T21:45:43.763Z,6.28
2019-05-10T21:48:15.292Z,3.40
2019-05-10T21:50:47.228Z,2.75
2019-05-10T21:53:18.909Z,3.35
2019-05-10T21:55:50.601Z,2.85
2019-05-10T21:58:22.322Z,4.60
2019-05-10T22:00:54.299Z,6.30
2019-05-10T22:03:27.614Z,4.20
2019-05-10T22:05:59.463Z,5.42
2019-05-10T22:08:30.901Z,3.15
2019-05-10T22:11:02.714Z,4.78
2019-05-10T22:13:34.301Z,5.30
2019-05-10T22:16:05.864Z,3.42
2019-05-10T22:18:38.430Z,3.00
2019-05-10T22:21:09.823Z,5.83
2019-05-10T22:23:41.845Z,5.05
2019-05-10T22:26:13.623Z,4.47
2019-05-10T22:28:45.357Z,3.65
2019-05-10T22:31:17.060Z,3.33
2019-05-10T22:33:48.771Z,3.50
2019-05-10T22:36:20.347Z,4.37
2019-05-10T22:39:05.834Z,3.25
2019-05-10T22:41:24.895Z,5.25
2019-05-10T22:43:56.724Z,3.58
2019-05-10T22:46:28.646Z,4.60
2019-05-10T22:49:01.193Z,3.87
2019-05-10T22:51:33.053Z,3.70
2019-05-10T22:54:04.957Z,3.58
2019-05-10T22:56:36.896Z,3.02
2019-05-10T22:59:08.537Z,5.12
2019-05-10T23:01:40.375Z,4.55
2019-05-10T23:04:13.442Z,3.62
2019-05-10T23:06:45.216Z,3.60
2019-05-10T23:09:24.667Z,3.30
2019-05-10T23:11:50.575Z,3.20
2019-05-10T23:14:22.326Z,3.33
2019-05-10T23:16:54.139Z,4.90
2019-05-10T23:19:25.684Z,3.52
2019-05-10T23:21:57.382Z,3.08
2019-05-10T23:24:39.272Z,6.90
2019-05-10T23:27:11.858Z,4.55
2019-05-10T23:29:43.397Z,3.62
2019-05-10T23:32:15.279Z,8.15
2019-05-10T23:34:46.929Z,3.77
2019-05-10T23:37:18.777Z,3.25
2019-05-10T23:39:50.635Z,4.28
2019-05-10T23:42:22.151Z,4.05
2019-05-10T23:44:53.957Z,5.78
2019-05-10T23:47:25.719Z,4.37
2019-05-10T23:49:57.547Z,3.77
2019-05-10T23:52:29.433Z,5.53
2019-05-10T23:55:02.612Z,3.77
2019-05-10T23:57:34.614Z,6.47
